createdAt,value
2023-10-10T00:01:44.435Z,85.20
2023-10-10T00:04:13.331Z,85.20
2023-10-10T00:06:41.676Z,85.30
2023-10-10T00:09:12.970Z,85.30
2023-10-10T00:11:41.934Z,85.30
2023-10-10T00:14:18.641Z,85.30
2023-10-10T00:16:48.774Z,85.20
2023-10-10T00:19:31.166Z,85.40
2023-10-10T00:21:58.946Z,85.40
2023-10-10T00:24:32.722Z,85.40
2023-10-10T00:27:14.390Z,85.50
2023-10-10T00:29:45.265Z,85.20
2023-10-10T00:32:18.487Z,85.30
2023-10-10T00:34:49.257Z,85.30
2023-10-10T00:37:18.755Z,85.50
2023-10-10T00:39:53.759Z,85.60
2023-10-10T00:42:21.802Z,85.40
2023-10-10T00:44:49.629Z,85.20
2023-10-10T00:47:17.387Z,85.60
2023-10-10T00:49:46.530Z,85.80
2023-10-10T00:52:18.203Z,85.80
2023-10-10T00:54:46.811Z,85.80
2023-10-10T00:57:15.441Z,85.60
2023-10-10T00:59:46.214Z,85.60
2023-10-10T01:02:15.562Z,85.10
2023-10-10T01:04:55.187Z,84.90
2023-10-10T01:07:23.447Z,85.20
2023-10-10T01:10:12.267Z,85.80
2023-10-10T01:12:40.855Z,85.40
2023-10-10T01:15:14.803Z,85.40
2023-10-10T01:17:45.010Z,85.80
2023-10-10T01:20:35.279Z,85.60
2023-10-10T01:23:03.963Z,85.20
2023-10-10T01:25:37.032Z,85.60
2023-10-10T01:28:07.028Z,85.40
2023-10-10T01:30:58.725Z,85.40
2023-10-10T01:33:32.819Z,85.20
2023-10-10T01:35:59.756Z,85.60
2023-10-10T01:38:49.084Z,85.20
2023-10-10T01:41:33.252Z,85.50
2023-10-10T01:44:14.004Z,85.60
2023-10-10T01:46:41.989Z,85.40
2023-10-10T01:49:14.998Z,85.10
2023-10-10T01:51:46.320Z,85.50
2023-10-10T01:54:22.264Z,85.60
2023-10-10T01:56:52.750Z,85.70
2023-10-10T01:59:26.418Z,85.50
2023-10-10T02:01:55.715Z,85.30
2023-10-10T02:04:23.262Z,85.40
2023-10-10T02:06:57.438Z,84.90
2023-10-10T02:09:27.321Z,85.30
2023-10-10T02:11:57.369Z,85.10
2023-10-10T02:14:27.076Z,85.20
2023-10-10T02:16:55.806Z,85.50
2023-10-10T02:19:34.339Z,85.30
2023-10-10T02:22:24.706Z,85.50
2023-10-10T02:25:10.046Z,85.10
2023-10-10T02:27:54.833Z,85.00
2023-10-10T02:30:41.663Z,85.30
2023-10-10T02:33:20.640Z,85.20
2023-10-10T02:35:55.710Z,85.20
2023-10-10T02:38:24.087Z,84.80
2023-10-10T02:40:54.739Z,85.00
2023-10-10T02:43:34.730Z,85.10
2023-10-10T02:46:01.929Z,85.00
2023-10-10T02:48:35.677Z,85.00
2023-10-10T02:51:04.978Z,84.80
2023-10-10T02:53:33.862Z,85.10
2023-10-10T02:56:03.200Z,85.20
2023-10-10T02:58:39.340Z,85.20
2023-10-10T03:01:11.621Z,85.20
2023-10-10T03:03:43.232Z,85.50
2023-10-10T03:06:13.845Z,85.10
2023-10-10T03:08:53.073Z,84.90
2023-10-10T03:11:37.394Z,85.30
2023-10-10T03:14:14.434Z,85.30
2023-10-10T03:16:46.357Z,85.50
2023-10-10T03:19:15.488Z,85.50
2023-10-10T03:21:48.935Z,85.40
2023-10-10T03:24:28.946Z,85.60
2023-10-10T03:27:14.523Z,85.80
2023-10-10T03:29:51.502Z,85.10
2023-10-10T03:32:34.624Z,85.30
2023-10-10T03:35:15.139Z,85.10
2023-10-10T03:37:55.318Z,85.80
2023-10-10T03:40:28.135Z,85.20
2023-10-10T03:43:15.530Z,85.30
2023-10-10T03:46:01.749Z,85.00
2023-10-10T03:48:47.577Z,85.40
2023-10-10T03:51:33.248Z,85.40
2023-10-10T03:54:18.610Z,85.20
2023-10-10T03:57:03.981Z,85.10
2023-10-10T03:59:49.559Z,85.20
2023-10-10T04:02:35.632Z,85.20
2023-10-10T04:05:26.985Z,85.00
2023-10-10T04:08:13.881Z,85.20
2023-10-10T04:11:05.528Z,84.90
2023-10-10T04:13:51.168Z,85.20
2023-10-10T04:16:36.627Z,85.40
2023-10-10T04:19:22.429Z,85.40
2023-10-10T04:22:07.782Z,85.30
2023-10-10T04:24:54.135Z,85.40
2023-10-10T04:27:39.490Z,85.80
2023-10-10T04:30:25.819Z,85.60
2023-10-10T04:33:11.549Z,85.20
2023-10-10T04:35:57.130Z,85.50
2023-10-10T04:38:42.750Z,85.10
2023-10-10T04:41:34.306Z,85.10
2023-10-10T04:44:20.032Z,85.00
2023-10-10T04:47:05.440Z,85.50
2023-10-10T04:49:52.104Z,85.30
2023-10-10T04:52:37.737Z,86.00
2023-10-10T04:55:23.817Z,85.30
2023-10-10T04:58:09.360Z,86.30
2023-10-10T05:00:55.185Z,85.70
2023-10-10T05:03:40.637Z,86.40
2023-10-10T05:06:26.591Z,86.30
2023-10-10T05:09:12.135Z,86.30
2023-10-10T05:11:57.623Z,85.70
2023-10-10T05:14:43.275Z,86.00
2023-10-10T05:17:29.085Z,86.00
2023-10-10T05:20:16.439Z,86.10
2023-10-10T05:23:02.154Z,86.00
2023-10-10T05:25:32.899Z,85.40
2023-10-10T05:28:00.801Z,85.70
2023-10-10T05:30:41.215Z,86.00
2023-10-10T05:33:08.490Z,86.00
2023-10-10T05:35:45.015Z,85.90
2023-10-10T05:38:12.460Z,86.30
2023-10-10T05:40:39.843Z,85.60
2023-10-10T05:43:16.750Z,86.50
2023-10-10T05:45:45.188Z,86.20
2023-10-10T05:48:16.028Z,86.70
2023-10-10T05:50:43.844Z,87.00
2023-10-10T05:53:11.159Z,86.50
2023-10-10T05:55:38.986Z,87.00
2023-10-10T05:58:07.099Z,86.60
2023-10-10T06:00:38.289Z,86.30
2023-10-10T06:03:09.281Z,86.00
2023-10-10T06:05:36.864Z,85.70
2023-10-10T06:08:07.577Z,85.50
2023-10-10T06:10:34.886Z,85.50
2023-10-10T06:13:05.490Z,85.10
2023-10-10T06:15:35.884Z,84.90
2023-10-10T06:18:13.947Z,84.80
2023-10-10T06:20:51.284Z,84.50
2023-10-10T06:23:29.883Z,84.00
2023-10-10T06:26:00.188Z,84.00
2023-10-10T06:28:27.519Z,84.30
2023-10-10T06:30:55.488Z,85.10
2023-10-10T06:33:29.367Z,84.50
2023-10-10T06:36:19.701Z,84.50
2023-10-10T06:38:48.103Z,84.30
2023-10-10T06:41:19.632Z,84.70
2023-10-10T06:43:49.730Z,84.80
2023-10-10T06:46:19.259Z,84.70
2023-10-10T06:48:48.703Z,84.70
2023-10-10T06:51:16.936Z,84.70
2023-10-10T06:53:46.697Z,84.50
2023-10-10T06:56:16.460Z,84.50
2023-10-10T06:58:46.977Z,84.50
2023-10-10T07:01:20.052Z,84.50
2023-10-10T07:03:55.929Z,84.50
2023-10-10T07:06:23.298Z,84.50
2023-10-10T07:09:09.700Z,84.30
2023-10-10T07:11:40.767Z,84.20
2023-10-10T07:14:13.841Z,84.10
2023-10-10T07:16:44.778Z,84.00
2023-10-10T07:19:20.992Z,83.90
2023-10-10T07:21:51.556Z,83.90
2023-10-10T07:24:19.501Z,83.80
2023-10-10T07:27:00.724Z,83.80
2023-10-10T07:29:27.864Z,83.80
2023-10-10T07:32:28.331Z,83.80
2023-10-10T07:34:55.911Z,83.70
2023-10-10T07:37:30.585Z,83.70
2023-10-10T07:39:58.298Z,83.80
2023-10-10T07:42:31.122Z,83.80
2023-10-10T07:44:59.658Z,83.90
2023-10-10T07:47:28.626Z,83.90
2023-10-10T07:50:01.160Z,83.90
2023-10-10T07:52:28.466Z,84.00
2023-10-10T07:55:03.677Z,84.80
2023-10-10T07:57:31.113Z,85.60
2023-10-10T08:00:00.126Z,85.60
2023-10-10T08:02:33.989Z,83.70
2023-10-10T08:05:12.273Z,81.20
2023-10-10T08:07:41.531Z,79.30
2023-10-10T08:10:15.600Z,78.90
2023-10-10T08:12:44.180Z,78.80
2023-10-10T08:15:22.108Z,76.80
2023-10-10T08:17:57.239Z,76.20
2023-10-10T08:20:37.155Z,75.90
2023-10-10T08:23:08.434Z,76.00
2023-10-10T08:25:39.271Z,75.60
2023-10-10T08:28:07.879Z,75.40
2023-10-10T08:30:34.978Z,74.70
2023-10-10T08:33:04.072Z,74.90
2023-10-10T08:35:32.096Z,74.60
2023-10-10T08:37:59.257Z,74.80
2023-10-10T08:40:35.131Z,74.60
2023-10-10T08:43:04.622Z,74.60
2023-10-10T08:45:41.242Z,74.50
2023-10-10T08:48:16.911Z,74.60
2023-10-10T08:50:47.956Z,74.80
2023-10-10T08:53:15.551Z,75.10
2023-10-10T08:55:43.170Z,75.20
2023-10-10T08:58:12.132Z,75.30
2023-10-10T09:00:39.396Z,73.50
2023-10-10T09:03:10.710Z,75.60
2023-10-10T09:05:38.227Z,74.90
2023-10-10T09:08:16.136Z,73.60
2023-10-10T09:10:54.530Z,73.00
2023-10-10T09:13:23.159Z,72.70
2023-10-10T09:15:58.090Z,72.30
2023-10-10T09:18:27.222Z,72.30
2023-10-10T09:21:12.392Z,72.20
2023-10-10T09:23:45.388Z,72.60
2023-10-10T09:26:30.687Z,72.00
2023-10-10T09:29:00.034Z,72.60
2023-10-10T09:31:34.075Z,72.50
2023-10-10T09:34:06.971Z,72.30
2023-10-10T09:36:39.635Z,73.00
2023-10-10T09:39:13.247Z,73.50
2023-10-10T09:42:00.461Z,72.90
2023-10-10T09:44:52.876Z,72.60
2023-10-10T09:47:41.427Z,73.10
2023-10-10T09:50:38.046Z,73.50
2023-10-10T09:53:08.971Z,73.60
2023-10-10T09:55:40.682Z,71.80
2023-10-10T09:58:09.237Z,73.50
2023-10-10T10:00:38.932Z,73.60
2023-10-10T10:03:28.235Z,73.00
2023-10-10T10:06:22.882Z,72.90
2023-10-10T10:09:18.727Z,71.80
2023-10-10T10:12:13.490Z,71.40
2023-10-10T10:14:49.828Z,71.30
2023-10-10T10:17:55.751Z,71.60
2023-10-10T10:20:47.306Z,71.40
2023-10-10T10:23:27.923Z,71.00
2023-10-10T10:26:09.864Z,71.70
2023-10-10T10:28:38.196Z,71.00
2023-10-10T10:31:18.056Z,72.00
2023-10-10T10:34:17.488Z,71.30
2023-10-10T10:36:46.434Z,70.40
2023-10-10T10:39:19.977Z,71.10
2023-10-10T10:41:54.744Z,71.50
2023-10-10T10:44:54.121Z,71.80
2023-10-10T10:47:36.978Z,72.60
2023-10-10T10:50:05.981Z,73.70
2023-10-10T10:52:46.019Z,73.80
2023-10-10T10:55:28.906Z,74.00
2023-10-10T10:58:31.518Z,74.50
2023-10-10T11:01:18.121Z,74.50
2023-10-10T11:03:46.657Z,74.80
2023-10-10T11:06:15.810Z,75.20
2023-10-10T11:11:29.280Z,75.50
2023-10-10T11:14:11.238Z,76.40
2023-10-10T11:16:40.871Z,76.60
2023-10-10T11:19:24.138Z,76.40
2023-10-10T11:21:51.629Z,76.70
2023-10-10T11:24:26.276Z,76.60
2023-10-10T11:27:08.517Z,77.10
2023-10-10T11:29:52.215Z,77.20
2023-10-10T11:32:30.654Z,77.30
2023-10-10T11:35:21.085Z,77.30
2023-10-10T11:38:00.600Z,76.30
2023-10-10T11:40:31.993Z,74.10
2023-10-10T11:43:11.151Z,73.60
2023-10-10T11:45:52.469Z,72.50
2023-10-10T11:48:20.018Z,71.60
2023-10-10T11:50:58.593Z,71.00
2023-10-10T11:53:28.935Z,70.30
2023-10-10T11:56:06.091Z,73.10
2023-10-10T11:58:39.184Z,71.10
2023-10-10T12:01:10.892Z,71.30
2023-10-10T12:03:42.389Z,73.20
2023-10-10T12:06:16.519Z,73.90
2023-10-10T12:08:49.547Z,74.50
2023-10-10T12:11:22.328Z,74.90
2023-10-10T12:13:52.131Z,75.20
2023-10-10T12:16:26.711Z,75.70
2023-10-10T12:18:55.850Z,76.00
2023-10-10T12:21:25.476Z,76.20
2023-10-10T12:24:01.409Z,76.40
2023-10-10T12:26:31.402Z,76.70
2023-10-10T12:28:58.757Z,76.70
2023-10-10T12:31:26.716Z,76.60
2023-10-10T12:33:57.162Z,76.70
2023-10-10T12:36:31.338Z,76.90
2023-10-10T12:39:05.903Z,77.10
2023-10-10T12:41:44.153Z,77.20
2023-10-10T12:44:11.100Z,77.50
2023-10-10T12:46:38.004Z,77.60
2023-10-10T12:49:05.032Z,77.80
2023-10-10T12:51:32.490Z,77.90
2023-10-10T12:54:09.374Z,78.10
2023-10-10T12:56:50.041Z,77.00
2023-10-10T12:59:27.268Z,76.20
2023-10-10T13:02:01.712Z,75.90
2023-10-10T13:04:33.622Z,76.70
2023-10-10T13:07:04.674Z,77.10
2023-10-10T13:09:34.883Z,77.50
2023-10-10T13:12:05.549Z,77.90
2023-10-10T13:14:34.713Z,78.10
2023-10-10T13:17:22.136Z,78.50
2023-10-10T13:19:50.861Z,78.70
2023-10-10T13:22:22.390Z,78.70
2023-10-10T13:24:50.420Z,79.00
2023-10-10T13:27:19.145Z,79.00
2023-10-10T13:29:46.745Z,79.10
2023-10-10T13:32:13.872Z,79.20
2023-10-10T13:34:41.170Z,79.30
2023-10-10T13:37:14.001Z,79.30
2023-10-10T13:40:00.811Z,79.40
2023-10-10T13:42:29.720Z,79.30
2023-10-10T13:45:10.640Z,79.50
2023-10-10T13:47:40.789Z,79.90
2023-10-10T13:50:27.079Z,80.00
2023-10-10T13:52:53.982Z,80.10
2023-10-10T13:55:22.902Z,80.10
2023-10-10T13:57:50.715Z,80.20
2023-10-10T14:00:30.839Z,77.80
2023-10-10T14:03:09.314Z,76.50
2023-10-10T14:05:38.108Z,75.30
2023-10-10T14:08:18.808Z,74.20
2023-10-10T14:10:51.396Z,73.50
2023-10-10T14:13:22.511Z,73.50
2023-10-10T14:15:56.930Z,72.90
2023-10-10T14:18:47.678Z,74.30
2023-10-10T14:21:17.805Z,74.10
2023-10-10T14:23:47.813Z,75.00
2023-10-10T14:26:20.071Z,75.30
2023-10-10T14:28:52.189Z,76.00
2023-10-10T14:31:23.868Z,76.60
2023-10-10T14:34:01.412Z,77.10
2023-10-10T14:36:29.251Z,78.10
2023-10-10T14:38:58.815Z,77.90
2023-10-10T14:41:31.855Z,78.10
2023-10-10T14:44:02.351Z,78.40
2023-10-10T14:46:36.855Z,78.60
2023-10-10T14:49:18.556Z,78.80
2023-10-10T14:51:51.695Z,78.90
2023-10-10T14:54:19.024Z,79.50
2023-10-10T14:56:52.431Z,79.70
2023-10-10T14:59:26.211Z,79.90
2023-10-10T15:01:54.298Z,80.00
2023-10-10T15:04:22.901Z,79.90
2023-10-10T15:06:55.716Z,80.20
2023-10-10T15:09:25.875Z,80.10
2023-10-10T15:12:02.015Z,80.20
2023-10-10T15:14:33.919Z,80.30
2023-10-10T15:17:04.678Z,80.10
2023-10-10T15:19:31.990Z,78.90
2023-10-10T15:22:00.237Z,78.30
2023-10-10T15:24:29.905Z,78.20
2023-10-10T15:26:57.395Z,78.40
2023-10-10T15:29:28.078Z,78.60
2023-10-10T15:31:58.531Z,78.70
2023-10-10T15:34:25.531Z,78.90
2023-10-10T15:36:52.461Z,79.00
2023-10-10T15:39:20.794Z,79.00
2023-10-10T15:41:47.996Z,79.30
2023-10-10T15:44:17.082Z,79.50
2023-10-10T15:46:45.476Z,79.50
2023-10-10T15:51:47.036Z,79.80
2023-10-10T15:54:16.810Z,79.90
2023-10-10T15:56:46.641Z,80.00
2023-10-10T15:59:16.555Z,80.00
2023-10-10T16:01:48.259Z,80.10
2023-10-10T16:04:18.882Z,80.10
2023-10-10T16:06:48.353Z,80.10
2023-10-10T16:09:31.562Z,80.20
2023-10-10T16:11:59.935Z,80.20
2023-10-10T16:14:27.524Z,80.20
2023-10-10T16:16:58.773Z,80.20
2023-10-10T16:19:27.745Z,80.30
2023-10-10T16:21:56.505Z,79.70
2023-10-10T16:24:28.768Z,77.30
2023-10-10T16:27:01.000Z,76.10
2023-10-10T16:29:43.527Z,75.10
2023-10-10T16:32:19.719Z,74.70
2023-10-10T16:34:48.352Z,74.00
2023-10-10T16:37:18.591Z,73.70
2023-10-10T16:39:47.104Z,73.20
2023-10-10T16:42:21.844Z,72.80
2023-10-10T16:44:49.013Z,72.50
2023-10-10T16:47:19.155Z,72.10
2023-10-10T16:49:51.534Z,72.30
2023-10-10T16:52:21.005Z,75.00
2023-10-10T16:54:52.602Z,75.60
2023-10-10T16:57:25.213Z,74.40
2023-10-10T16:59:57.380Z,74.70
2023-10-10T17:02:30.271Z,75.30
2023-10-10T17:04:57.945Z,75.60
2023-10-10T17:07:28.538Z,76.10
2023-10-10T17:09:57.821Z,76.30
2023-10-10T17:12:24.741Z,76.50
2023-10-10T17:14:57.625Z,76.80
2023-10-10T17:17:27.925Z,77.00
2023-10-10T17:19:55.418Z,77.50
2023-10-10T17:22:23.067Z,77.30
2023-10-10T17:24:50.308Z,77.50
2023-10-10T17:27:18.778Z,77.60
2023-10-10T17:29:47.611Z,77.70
2023-10-10T17:32:16.939Z,77.90
2023-10-10T17:34:46.029Z,77.90
2023-10-10T17:37:13.166Z,78.00
2023-10-10T17:39:41.782Z,78.30
2023-10-10T17:42:13.193Z,78.40
2023-10-10T17:44:41.245Z,78.40
2023-10-10T17:47:08.393Z,78.50
2023-10-10T17:49:36.360Z,78.50
2023-10-10T17:52:03.729Z,77.10
2023-10-10T17:54:30.849Z,77.70
2023-10-10T17:56:58.978Z,77.50
2023-10-10T17:59:26.000Z,78.00
2023-10-10T18:01:55.804Z,78.20
2023-10-10T18:04:26.666Z,78.00
2023-10-10T18:06:54.264Z,78.40
2023-10-10T18:09:21.435Z,78.20
2023-10-10T18:11:50.310Z,78.20
2023-10-10T18:14:18.717Z,78.30
2023-10-10T18:16:46.390Z,78.70
2023-10-10T18:19:17.249Z,78.40
2023-10-10T18:21:46.422Z,78.70
2023-10-10T18:24:14.878Z,78.60
2023-10-10T18:26:42.053Z,78.70
2023-10-10T18:29:09.902Z,79.00
2023-10-10T18:31:39.530Z,79.00
2023-10-10T18:34:08.528Z,79.10
2023-10-10T18:36:38.474Z,79.30
2023-10-10T18:39:13.608Z,79.40
2023-10-10T18:41:44.801Z,79.60
2023-10-10T18:44:17.764Z,79.70
2023-10-10T18:46:45.927Z,79.90
2023-10-10T18:49:15.627Z,79.90
2023-10-10T18:51:43.831Z,80.00
2023-10-10T18:54:12.447Z,79.20
2023-10-10T18:56:39.531Z,77.30
2023-10-10T18:59:06.938Z,76.30
2023-10-10T19:01:38.812Z,75.80
2023-10-10T19:04:06.690Z,75.00
2023-10-10T19:06:33.678Z,74.60
2023-10-10T19:09:02.010Z,74.00
2023-10-10T19:11:29.293Z,73.90
2023-10-10T19:13:57.001Z,73.80
2023-10-10T19:16:25.658Z,74.30
2023-10-10T19:18:52.669Z,74.20
2023-10-10T19:21:19.800Z,75.00
2023-10-10T19:23:53.623Z,76.50
2023-10-10T19:26:23.786Z,77.10
2023-10-10T19:28:56.320Z,77.80
2023-10-10T19:31:24.135Z,78.00
2023-10-10T19:33:51.825Z,78.60
2023-10-10T19:36:21.192Z,78.80
2023-10-10T19:38:48.719Z,79.00
2023-10-10T19:41:16.398Z,79.10
2023-10-10T19:43:43.275Z,79.10
2023-10-10T19:46:13.063Z,79.60
2023-10-10T19:48:42.085Z,80.20
2023-10-10T19:51:20.784Z,79.90
2023-10-10T19:53:54.275Z,80.10
2023-10-10T19:56:22.428Z,80.20
2023-10-10T19:58:50.023Z,80.50
2023-10-10T20:01:17.500Z,80.40
2023-10-10T20:03:47.088Z,80.60
2023-10-10T20:06:22.661Z,80.60
2023-10-10T20:08:53.999Z,80.70
2023-10-10T20:11:22.625Z,80.60
2023-10-10T20:13:49.863Z,78.80
2023-10-10T20:16:18.494Z,76.60
2023-10-10T20:18:48.991Z,75.50
2023-10-10T20:21:17.625Z,74.60
2023-10-10T20:23:46.351Z,73.80
2023-10-10T20:26:20.233Z,73.50
2023-10-10T20:28:51.846Z,72.90
2023-10-10T20:31:19.797Z,72.40
2023-10-10T20:33:49.428Z,72.10
2023-10-10T20:36:17.552Z,72.00
2023-10-10T20:38:45.235Z,71.60
2023-10-10T20:41:13.851Z,72.30
2023-10-10T20:43:41.892Z,74.10
2023-10-10T20:46:09.309Z,75.60
2023-10-10T20:48:36.665Z,76.20
2023-10-10T20:51:04.696Z,76.80
2023-10-10T20:53:32.008Z,77.40
2023-10-10T20:55:59.091Z,77.90
2023-10-10T20:58:26.209Z,78.20
2023-10-10T21:00:54.793Z,78.10
2023-10-10T21:03:23.900Z,78.50
2023-10-10T21:05:51.154Z,79.00
2023-10-10T21:08:19.706Z,79.00
2023-10-10T21:10:47.097Z,79.30
2023-10-10T21:13:14.974Z,79.70
2023-10-10T21:15:45.638Z,80.00
2023-10-10T21:18:12.692Z,80.00
2023-10-10T21:20:56.305Z,80.40
2023-10-10T21:23:28.408Z,80.60
2023-10-10T21:25:55.796Z,80.80
2023-10-10T21:28:25.213Z,81.10
2023-10-10T21:30:53.163Z,81.50
2023-10-10T21:33:20.487Z,81.20
2023-10-10T21:35:51.091Z,81.70
2023-10-10T21:38:18.707Z,82.10
2023-10-10T21:40:45.767Z,82.10
2023-10-10T21:43:12.702Z,82.60
2023-10-10T21:45:40.246Z,82.90
2023-10-10T21:48:11.214Z,82.80
2023-10-10T21:50:42.264Z,83.00
2023-10-10T21:53:09.568Z,83.40
2023-10-10T21:55:57.693Z,83.50
2023-10-10T21:58:24.597Z,83.50
2023-10-10T22:00:56.449Z,83.30
2023-10-10T22:03:24.135Z,83.50
2023-10-10T22:05:51.165Z,83.70
2023-10-10T22:08:18.155Z,83.50
2023-10-10T22:10:46.323Z,83.60
2023-10-10T22:13:16.373Z,83.50
2023-10-10T22:15:43.560Z,83.60
2023-10-10T22:18:12.721Z,83.80
2023-10-10T22:20:42.965Z,83.70
2023-10-10T22:23:14.580Z,83.70
2023-10-10T22:25:41.743Z,83.90
2023-10-10T22:28:11.116Z,83.70
2023-10-10T22:30:40.865Z,83.90
2023-10-10T22:33:11.408Z,84.00
2023-10-10T22:35:39.050Z,84.10
2023-10-10T22:38:14.284Z,84.20
2023-10-10T22:40:41.553Z,84.30
2023-10-10T22:43:11.472Z,84.50
2023-10-10T22:45:38.882Z,84.60
2023-10-10T22:48:10.033Z,84.70
2023-10-10T22:50:37.711Z,84.70
2023-10-10T22:53:06.092Z,84.70
2023-10-10T22:55:37.533Z,84.70
2023-10-10T22:58:09.013Z,84.80
2023-10-10T23:00:39.784Z,85.00
2023-10-10T23:03:12.188Z,84.90
2023-10-10T23:05:40.826Z,85.00
2023-10-10T23:08:08.695Z,84.90
2023-10-10T23:10:36.062Z,85.00
2023-10-10T23:13:03.469Z,85.00
2023-10-10T23:15:30.647Z,85.00
2023-10-10T23:18:02.187Z,85.10
2023-10-10T23:20:34.748Z,85.20
2023-10-10T23:23:07.526Z,85.30
2023-10-10T23:25:35.771Z,85.30
2023-10-10T23:28:06.457Z,85.50
2023-10-10T23:30:34.309Z,85.50
2023-10-10T23:33:04.371Z,85.50
2023-10-10T23:35:34.411Z,85.50
2023-10-10T23:38:08.211Z,85.90
2023-10-10T23:40:43.986Z,85.90
2023-10-10T23:43:19.520Z,85.70
2023-10-10T23:45:49.799Z,85.60
2023-10-10T23:48:17.717Z,85.70
2023-10-10T23:50:46.067Z,85.70
2023-10-10T23:53:15.788Z,85.70
2023-10-10T23:55:48.104Z,85.70
2023-10-10T23:58:16.690Z,85.70
